sensor_id;sensor_type;location;lat;lon;timestamp;temperature;humidity
17948;DHT22;9099;47.958;11.366;2023-03-24T00:00:45;12.80;99.90
17948;DHT22;9099;47.958;11.366;2023-03-24T00:03:13;12.80;99.90
17948;DHT22;9099;47.958;11.366;2023-03-24T00:05:42;12.80;99.90
17948;DHT22;9099;47.958;11.366;2023-03-24T00:08:09;12.80;99.90
17948;DHT22;9099;47.958;11.366;2023-03-24T00:10:36;12.70;99.90
17948;DHT22;9099;47.958;11.366;2023-03-24T00:13:04;12.70;99.90
17948;DHT22;9099;47.958;11.366;2023-03-24T00:15:31;12.70;99.90
17948;DHT22;9099;47.958;11.366;2023-03-24T00:17:58;12.70;99.90
17948;DHT22;9099;47.958;11.366;2023-03-24T00:20:26;12.70;99.90
17948;DHT22;9099;47.958;11.366;2023-03-24T00:22:55;12.60;99.90
17948;DHT22;9099;47.958;11.366;2023-03-24T00:25:24;12.60;99.90
17948;DHT22;9099;47.958;11.366;2023-03-24T00:27:53;12.40;99.90
17948;DHT22;9099;47.958;11.366;2023-03-24T00:30:21;12.30;99.90
17948;DHT22;9099;47.958;11.366;2023-03-24T00:32:49;12.20;99.90
17948;DHT22;9099;47.958;11.366;2023-03-24T00:35:17;12.20;99.90
17948;DHT22;9099;47.958;11.366;2023-03-24T00:37:44;12.30;99.90
17948;DHT22;9099;47.958;11.366;2023-03-24T00:40:15;12.30;99.90
17948;DHT22;9099;47.958;11.366;2023-03-24T00:42:43;12.30;99.90
17948;DHT22;9099;47.958;11.366;2023-03-24T00:45:12;12.30;99.90
17948;DHT22;9099;47.958;11.366;2023-03-24T00:47:40;12.30;99.90
17948;DHT22;9099;47.958;11.366;2023-03-24T00:50:12;12.30;99.90
17948;DHT22;9099;47.958;11.366;2023-03-24T00:52:40;12.30;99.90
17948;DHT22;9099;47.958;11.366;2023-03-24T00:55:11;12.30;99.90
17948;DHT22;9099;47.958;11.366;2023-03-24T00:57:42;12.40;99.90
17948;DHT22;9099;47.958;11.366;2023-03-24T01:00:15;12.40;99.90
17948;DHT22;9099;47.958;11.366;2023-03-24T01:02:45;12.50;99.90
17948;DHT22;9099;47.958;11.366;2023-03-24T01:05:12;12.60;99.90
17948;DHT22;9099;47.958;11.366;2023-03-24T01:07:42;12.60;99.90
17948;DHT22;9099;47.958;11.366;2023-03-24T01:10:11;12.70;99.90
17948;DHT22;9099;47.958;11.366;2023-03-24T01:12:40;12.70;99.90
17948;DHT22;9099;47.958;11.366;2023-03-24T01:15:19;12.70;99.90
17948;DHT22;9099;47.958;11.366;2023-03-24T01:17:47;12.70;99.90
17948;DHT22;9099;47.958;11.366;2023-03-24T01:20:15;12.70;99.90
17948;DHT22;9099;47.958;11.366;2023-03-24T01:22:42;12.80;99.90
17948;DHT22;9099;47.958;11.366;2023-03-24T01:25:11;12.80;99.90
17948;DHT22;9099;47.958;11.366;2023-03-24T01:27:42;12.90;99.90
17948;DHT22;9099;47.958;11.366;2023-03-24T01:30:12;12.90;99.90
17948;DHT22;9099;47.958;11.366;2023-03-24T01:32:39;13.00;99.90
17948;DHT22;9099;47.958;11.366;2023-03-24T01:35:07;13.00;99.90
17948;DHT22;9099;47.958;11.366;2023-03-24T01:37:34;13.00;99.90
17948;DHT22;9099;47.958;11.366;2023-03-24T01:40:01;13.00;99.90
17948;DHT22;9099;47.958;11.366;2023-03-24T01:42:31;12.80;99.90
17948;DHT22;9099;47.958;11.366;2023-03-24T01:45:32;12.80;99.90
17948;DHT22;9099;47.958;11.366;2023-03-24T01:47:48;12.70;99.90
17948;DHT22;9099;47.958;11.366;2023-03-24T01:50:15;12.70;99.90
17948;DHT22;9099;47.958;11.366;2023-03-24T01:52:42;12.60;99.90
17948;DHT22;9099;47.958;11.366;2023-03-24T01:55:12;12.60;99.90
17948;DHT22;9099;47.958;11.366;2023-03-24T01:57:44;12.70;99.90
17948;DHT22;9099;47.958;11.366;2023-03-24T02:00:16;12.70;99.90
17948;DHT22;9099;47.958;11.366;2023-03-24T02:02:52;12.70;99.90
17948;DHT22;9099;47.958;11.366;2023-03-24T02:05:25;12.70;99.90
17948;DHT22;9099;47.958;11.366;2023-03-24T02:07:58;12.70;99.90
17948;DHT22;9099;47.958;11.366;2023-03-24T02:10:29;12.70;99.90
17948;DHT22;9099;47.958;11.366;2023-03-24T02:12:57;12.80;99.90
17948;DHT22;9099;47.958;11.366;2023-03-24T02:15:27;12.80;99.90
17948;DHT22;9099;47.958;11.366;2023-03-24T02:18:01;12.70;99.90
17948;DHT22;9099;47.958;11.366;2023-03-24T02:23:56;12.80;99.90
17948;DHT22;9099;47.958;11.366;2023-03-24T02:26:46;12.80;99.90
17948;DHT22;9099;47.958;11.366;2023-03-24T02:30:00;12.80;99.90
17948;DHT22;9099;47.958;11.366;2023-03-24T02:32:59;12.90;99.90
17948;DHT22;9099;47.958;11.366;2023-03-24T02:35:57;12.90;99.90
17948;DHT22;9099;47.958;11.366;2023-03-24T02:38:54;12.90;99.90
17948;DHT22;9099;47.958;11.366;2023-03-24T02:41:30;12.90;99.90
17948;DHT22;9099;47.958;11.366;2023-03-24T02:44:04;12.90;99.90
17948;DHT22;9099;47.958;11.366;2023-03-24T02:46:37;12.90;99.90
17948;DHT22;9099;47.958;11.366;2023-03-24T02:49:14;12.80;99.90
17948;DHT22;9099;47.958;11.366;2023-03-24T02:51:50;12.80;99.90
17948;DHT22;9099;47.958;11.366;2023-03-24T02:54:25;12.70;99.90
17948;DHT22;9099;47.958;11.366;2023-03-24T02:56:57;12.50;99.90
17948;DHT22;9099;47.958;11.366;2023-03-24T02:59:31;12.50;99.90
17948;DHT22;9099;47.958;11.366;2023-03-24T03:02:04;12.40;99.90
17948;DHT22;9099;47.958;11.366;2023-03-24T03:04:37;12.50;99.90
17948;DHT22;9099;47.958;11.366;2023-03-24T03:07:07;12.50;99.90
17948;DHT22;9099;47.958;11.366;2023-03-24T03:09:40;12.40;99.90
17948;DHT22;9099;47.958;11.366;2023-03-24T03:12:10;12.30;99.90
17948;DHT22;9099;47.958;11.366;2023-03-24T03:14:40;12.30;99.90
17948;DHT22;9099;47.958;11.366;2023-03-24T03:17:12;12.40;99.90
17948;DHT22;9099;47.958;11.366;2023-03-24T03:19:44;12.40;99.90
17948;DHT22;9099;47.958;11.366;2023-03-24T03:22:17;12.50;99.90
17948;DHT22;9099;47.958;11.366;2023-03-24T03:24:49;12.40;99.90
17948;DHT22;9099;47.958;11.366;2023-03-24T03:27:21;12.40;99.90
17948;DHT22;9099;47.958;11.366;2023-03-24T03:29:54;12.40;99.90
17948;DHT22;9099;47.958;11.366;2023-03-24T03:32:26;12.40;99.90
17948;DHT22;9099;47.958;11.366;2023-03-24T03:35:00;12.40;99.90
17948;DHT22;9099;47.958;11.366;2023-03-24T03:37:35;12.40;99.90
17948;DHT22;9099;47.958;11.366;2023-03-24T03:40:07;12.40;99.90
17948;DHT22;9099;47.958;11.366;2023-03-24T03:42:38;12.40;99.90
17948;DHT22;9099;47.958;11.366;2023-03-24T03:45:07;12.40;99.90
17948;DHT22;9099;47.958;11.366;2023-03-24T03:47:34;12.30;99.90
17948;DHT22;9099;47.958;11.366;2023-03-24T03:50:02;12.20;99.90
17948;DHT22;9099;47.958;11.366;2023-03-24T03:52:30;12.00;99.90
17948;DHT22;9099;47.958;11.366;2023-03-24T03:54:57;11.90;99.90
17948;DHT22;9099;47.958;11.366;2023-03-24T03:57:25;11.70;99.90
17948;DHT22;9099;47.958;11.366;2023-03-24T03:59:54;11.70;99.90
17948;DHT22;9099;47.958;11.366;2023-03-24T04:02:30;11.70;99.90
17948;DHT22;9099;47.958;11.366;2023-03-24T04:05:19;11.70;99.90
17948;DHT22;9099;47.958;11.366;2023-03-24T04:08:18;11.80;99.90
17948;DHT22;9099;47.958;11.366;2023-03-24T04:11:18;11.80;99.90
17948;DHT22;9099;47.958;11.366;2023-03-24T04:13:58;11.90;99.90
17948;DHT22;9099;47.958;11.366;2023-03-24T04:16:36;11.90;99.90
17948;DHT22;9099;47.958;11.366;2023-03-24T04:19:27;12.00;99.90
17948;DHT22;9099;47.958;11.366;2023-03-24T04:22:10;11.90;99.90
17948;DHT22;9099;47.958;11.366;2023-03-24T04:24:44;11.90;99.90
17948;DHT22;9099;47.958;11.366;2023-03-24T04:27:21;11.90;99.90
17948;DHT22;9099;47.958;11.366;2023-03-24T04:29:55;11.90;99.90
17948;DHT22;9099;47.958;11.366;2023-03-24T04:32:31;12.00;99.90
17948;DHT22;9099;47.958;11.366;2023-03-24T04:35:02;12.00;99.90
17948;DHT22;9099;47.958;11.366;2023-03-24T04:37:31;12.00;99.90
17948;DHT22;9099;47.958;11.366;2023-03-24T04:40:05;12.10;99.90
17948;DHT22;9099;47.958;11.366;2023-03-24T04:42:36;12.00;99.90
17948;DHT22;9099;47.958;11.366;2023-03-24T04:45:05;12.00;99.90
17948;DHT22;9099;47.958;11.366;2023-03-24T04:47:57;12.00;99.90
17948;DHT22;9099;47.958;11.366;2023-03-24T04:50:28;12.00;99.90
17948;DHT22;9099;47.958;11.366;2023-03-24T04:52:56;12.00;99.90
17948;DHT22;9099;47.958;11.366;2023-03-24T04:55:49;12.10;99.90
17948;DHT22;9099;47.958;11.366;2023-03-24T04:58:21;12.20;99.90
17948;DHT22;9099;47.958;11.366;2023-03-24T05:00:48;12.20;99.90
17948;DHT22;9099;47.958;11.366;2023-03-24T05:03:17;12.30;99.90
17948;DHT22;9099;47.958;11.366;2023-03-24T05:05:46;12.30;99.90
17948;DHT22;9099;47.958;11.366;2023-03-24T05:08:14;12.30;99.90
17948;DHT22;9099;47.958;11.366;2023-03-24T05:10:42;12.30;99.90
17948;DHT22;9099;47.958;11.366;2023-03-24T05:13:09;12.40;99.90
17948;DHT22;9099;47.958;11.366;2023-03-24T05:15:36;12.40;99.90
17948;DHT22;9099;47.958;11.366;2023-03-24T05:18:03;12.50;99.90
17948;DHT22;9099;47.958;11.366;2023-03-24T05:20:32;12.50;99.90
17948;DHT22;9099;47.958;11.366;2023-03-24T05:22:59;12.50;99.90
17948;DHT22;9099;47.958;11.366;2023-03-24T05:25:26;12.40;99.90
17948;DHT22;9099;47.958;11.366;2023-03-24T05:27:52;12.30;99.90
17948;DHT22;9099;47.958;11.366;2023-03-24T05:30:19;12.20;99.90
17948;DHT22;9099;47.958;11.366;2023-03-24T05:32:46;12.10;99.90
17948;DHT22;9099;47.958;11.366;2023-03-24T05:35:14;12.00;99.90
17948;DHT22;9099;47.958;11.366;2023-03-24T05:37:42;12.00;99.90
17948;DHT22;9099;47.958;11.366;2023-03-24T05:40:09;12.00;99.90
17948;DHT22;9099;47.958;11.366;2023-03-24T05:42:36;12.10;99.90
17948;DHT22;9099;47.958;11.366;2023-03-24T05:45:04;12.10;99.90
17948;DHT22;9099;47.958;11.366;2023-03-24T05:47:32;12.10;99.90
17948;DHT22;9099;47.958;11.366;2023-03-24T05:49:59;12.20;99.90
17948;DHT22;9099;47.958;11.366;2023-03-24T05:52:25;12.20;99.90
17948;DHT22;9099;47.958;11.366;2023-03-24T05:54:54;12.30;99.90
17948;DHT22;9099;47.958;11.366;2023-03-24T05:57:20;12.20;99.90
17948;DHT22;9099;47.958;11.366;2023-03-24T05:59:47;12.10;99.90
17948;DHT22;9099;47.958;11.366;2023-03-24T06:02:14;12.00;99.90
17948;DHT22;9099;47.958;11.366;2023-03-24T06:04:41;12.00;99.90
17948;DHT22;9099;47.958;11.366;2023-03-24T06:07:10;11.90;99.90
17948;DHT22;9099;47.958;11.366;2023-03-24T06:09:38;12.00;99.90
17948;DHT22;9099;47.958;11.366;2023-03-24T06:12:09;12.10;99.90
17948;DHT22;9099;47.958;11.366;2023-03-24T06:14:36;12.10;99.90
17948;DHT22;9099;47.958;11.366;2023-03-24T06:17:03;12.20;99.90
17948;DHT22;9099;47.958;11.366;2023-03-24T06:19:29;12.20;99.90
17948;DHT22;9099;47.958;11.366;2023-03-24T06:21:58;12.20;99.90
17948;DHT22;9099;47.958;11.366;2023-03-24T06:24:27;12.10;99.90
17948;DHT22;9099;47.958;11.366;2023-03-24T06:26:55;12.10;99.90
17948;DHT22;9099;47.958;11.366;2023-03-24T06:29:28;12.10;99.90
17948;DHT22;9099;47.958;11.366;2023-03-24T06:31:56;12.20;99.90
17948;DHT22;9099;47.958;11.366;2023-03-24T06:34:23;12.30;99.90
17948;DHT22;9099;47.958;11.366;2023-03-24T06:36:50;12.40;99.90
17948;DHT22;9099;47.958;11.366;2023-03-24T06:39:18;12.50;99.90
17948;DHT22;9099;47.958;11.366;2023-03-24T06:41:44;12.60;99.90
17948;DHT22;9099;47.958;11.366;2023-03-24T06:44:11;12.60;99.90
17948;DHT22;9099;47.958;11.366;2023-03-24T06:46:40;12.70;99.90
17948;DHT22;9099;47.958;11.366;2023-03-24T06:49:07;12.70;99.90
17948;DHT22;9099;47.958;11.366;2023-03-24T06:51:34;12.70;99.90
17948;DHT22;9099;47.958;11.366;2023-03-24T06:54:01;12.70;99.90
17948;DHT22;9099;47.958;11.366;2023-03-24T06:56:29;12.70;99.90
17948;DHT22;9099;47.958;11.366;2023-03-24T06:58:56;12.80;99.90
17948;DHT22;9099;47.958;11.366;2023-03-24T07:01:23;12.80;99.90
17948;DHT22;9099;47.958;11.366;2023-03-24T07:03:51;12.80;99.90
17948;DHT22;9099;47.958;11.366;2023-03-24T07:06:18;12.80;99.90
17948;DHT22;9099;47.958;11.366;2023-03-24T07:08:47;12.90;99.90
17948;DHT22;9099;47.958;11.366;2023-03-24T07:11:14;12.90;99.90
17948;DHT22;9099;47.958;11.366;2023-03-24T07:13:41;12.90;99.90
17948;DHT22;9099;47.958;11.366;2023-03-24T07:16:08;12.80;99.90
17948;DHT22;9099;47.958;11.366;2023-03-24T07:18:35;12.70;99.90
17948;DHT22;9099;47.958;11.366;2023-03-24T07:21:04;12.50;99.90
17948;DHT22;9099;47.958;11.366;2023-03-24T07:23:31;12.40;99.90
17948;DHT22;9099;47.958;11.366;2023-03-24T07:26:01;12.50;99.90
17948;DHT22;9099;47.958;11.366;2023-03-24T07:28:28;12.70;99.90
17948;DHT22;9099;47.958;11.366;2023-03-24T07:30:55;12.80;99.90
17948;DHT22;9099;47.958;11.366;2023-03-24T07:33:23;12.70;99.90
17948;DHT22;9099;47.958;11.366;2023-03-24T07:35:53;12.60;99.90
17948;DHT22;9099;47.958;11.366;2023-03-24T07:38:21;12.60;99.90
17948;DHT22;9099;47.958;11.366;2023-03-24T07:40:48;12.60;99.90
17948;DHT22;9099;47.958;11.366;2023-03-24T07:43:15;12.60;99.90
17948;DHT22;9099;47.958;11.366;2023-03-24T07:45:43;12.80;99.90
17948;DHT22;9099;47.958;11.366;2023-03-24T07:48:10;12.80;99.90
17948;DHT22;9099;47.958;11.366;2023-03-24T07:50:37;12.90;99.90
17948;DHT22;9099;47.958;11.366;2023-03-24T07:53:04;13.00;99.90
17948;DHT22;9099;47.958;11.366;2023-03-24T07:55:35;13.10;99.90
17948;DHT22;9099;47.958;11.366;2023-03-24T07:58:02;13.20;99.90
17948;DHT22;9099;47.958;11.366;2023-03-24T08:00:29;13.40;99.90
17948;DHT22;9099;47.958;11.366;2023-03-24T08:02:57;13.60;99.90
17948;DHT22;9099;47.958;11.366;2023-03-24T08:05:27;13.70;99.90
17948;DHT22;9099;47.958;11.366;2023-03-24T08:07:54;13.80;99.90
17948;DHT22;9099;47.958;11.366;2023-03-24T08:10:24;14.00;99.90
17948;DHT22;9099;47.958;11.366;2023-03-24T08:12:52;14.10;99.90
17948;DHT22;9099;47.958;11.366;2023-03-24T08:15:19;14.20;99.90
17948;DHT22;9099;47.958;11.366;2023-03-24T08:17:47;14.30;99.90
17948;DHT22;9099;47.958;11.366;2023-03-24T08:20:14;14.40;99.90
17948;DHT22;9099;47.958;11.366;2023-03-24T08:22:43;14.60;99.90
17948;DHT22;9099;47.958;11.366;2023-03-24T08:25:14;14.70;99.90
17948;DHT22;9099;47.958;11.366;2023-03-24T08:27:41;14.80;99.90
17948;DHT22;9099;47.958;11.366;2023-03-24T08:30:14;15.00;99.90
17948;DHT22;9099;47.958;11.366;2023-03-24T08:32:43;15.10;99.90
17948;DHT22;9099;47.958;11.366;2023-03-24T08:35:10;15.20;99.90
17948;DHT22;9099;47.958;11.366;2023-03-24T08:37:39;15.30;99.90
17948;DHT22;9099;47.958;11.366;2023-03-24T08:40:08;15.30;99.90
17948;DHT22;9099;47.958;11.366;2023-03-24T08:42:38;15.30;99.90
17948;DHT22;9099;47.958;11.366;2023-03-24T08:45:07;15.30;99.90
17948;DHT22;9099;47.958;11.366;2023-03-24T08:47:35;15.30;99.90
17948;DHT22;9099;47.958;11.366;2023-03-24T08:50:03;15.20;99.90
17948;DHT22;9099;47.958;11.366;2023-03-24T08:52:30;15.20;99.90
17948;DHT22;9099;47.958;11.366;2023-03-24T08:54:57;15.20;99.90
17948;DHT22;9099;47.958;11.366;2023-03-24T08:57:23;15.30;99.90
17948;DHT22;9099;47.958;11.366;2023-03-24T08:59:51;15.30;99.90
17948;DHT22;9099;47.958;11.366;2023-03-24T09:02:18;15.30;99.90
17948;DHT22;9099;47.958;11.366;2023-03-24T09:04:46;15.40;99.90
17948;DHT22;9099;47.958;11.366;2023-03-24T09:07:17;15.50;99.90
17948;DHT22;9099;47.958;11.366;2023-03-24T09:09:44;15.50;99.90
17948;DHT22;9099;47.958;11.366;2023-03-24T09:12:11;15.50;99.90
17948;DHT22;9099;47.958;11.366;2023-03-24T09:14:38;15.40;99.90
17948;DHT22;9099;47.958;11.366;2023-03-24T09:17:05;15.40;99.90
17948;DHT22;9099;47.958;11.366;2023-03-24T09:19:31;15.30;99.90
17948;DHT22;9099;47.958;11.366;2023-03-24T09:22:00;15.40;99.90
17948;DHT22;9099;47.958;11.366;2023-03-24T09:24:26;15.40;99.90
17948;DHT22;9099;47.958;11.366;2023-03-24T09:26:53;15.30;99.90
17948;DHT22;9099;47.958;11.366;2023-03-24T09:29:20;15.20;99.90
17948;DHT22;9099;47.958;11.366;2023-03-24T09:31:47;15.20;99.90
17948;DHT22;9099;47.958;11.366;2023-03-24T09:34:14;15.10;99.90
17948;DHT22;9099;47.958;11.366;2023-03-24T09:36:41;15.10;99.90
17948;DHT22;9099;47.958;11.366;2023-03-24T09:39:10;15.10;99.90
17948;DHT22;9099;47.958;11.366;2023-03-24T09:41:37;15.00;99.90
17948;DHT22;9099;47.958;11.366;2023-03-24T09:44:11;14.90;99.90
17948;DHT22;9099;47.958;11.366;2023-03-24T09:46:43;14.80;99.90
17948;DHT22;9099;47.958;11.366;2023-03-24T09:49:14;14.70;99.90
17948;DHT22;9099;47.958;11.366;2023-03-24T09:51:43;14.60;99.90
17948;DHT22;9099;47.958;11.366;2023-03-24T09:54:17;14.60;99.90
17948;DHT22;9099;47.958;11.366;2023-03-24T09:56:46;14.60;99.90
17948;DHT22;9099;47.958;11.366;2023-03-24T09:59:17;14.60;99.90
17948;DHT22;9099;47.958;11.366;2023-03-24T10:01:45;14.50;99.90
17948;DHT22;9099;47.958;11.366;2023-03-24T10:04:14;14.60;99.90
17948;DHT22;9099;47.958;11.366;2023-03-24T10:06:42;14.50;99.90
17948;DHT22;9099;47.958;11.366;2023-03-24T10:09:22;14.50;99.90
17948;DHT22;9099;47.958;11.366;2023-03-24T10:11:56;14.50;99.90
17948;DHT22;9099;47.958;11.366;2023-03-24T10:14:43;14.50;99.90
17948;DHT22;9099;47.958;11.366;2023-03-24T10:17:17;14.40;99.90
17948;DHT22;9099;47.958;11.366;2023-03-24T10:19:49;14.30;99.90
17948;DHT22;9099;47.958;11.366;2023-03-24T10:22:23;14.30;99.90
17948;DHT22;9099;47.958;11.366;2023-03-24T10:24:57;14.20;99.90
17948;DHT22;9099;47.958;11.366;2023-03-24T10:27:29;14.20;99.90
17948;DHT22;9099;47.958;11.366;2023-03-24T10:30:02;14.10;99.90
17948;DHT22;9099;47.958;11.366;2023-03-24T10:32:33;14.10;99.90
17948;DHT22;9099;47.958;11.366;2023-03-24T10:35:01;14.20;99.90
17948;DHT22;9099;47.958;11.366;2023-03-24T10:37:34;14.30;99.90
17948;DHT22;9099;47.958;11.366;2023-03-24T10:40:11;14.30;99.90
17948;DHT22;9099;47.958;11.366;2023-03-24T10:42:41;14.40;99.90
17948;DHT22;9099;47.958;11.366;2023-03-24T10:45:11;14.40;99.90
17948;DHT22;9099;47.958;11.366;2023-03-24T10:47:39;14.30;99.90
17948;DHT22;9099;47.958;11.366;2023-03-24T10:50:08;14.30;99.90
17948;DHT22;9099;47.958;11.366;2023-03-24T10:52:38;14.30;99.90
17948;DHT22;9099;47.958;11.366;2023-03-24T10:55:13;14.20;99.90
17948;DHT22;9099;47.958;11.366;2023-03-24T10:57:42;14.00;99.90
17948;DHT22;9099;47.958;11.366;2023-03-24T11:00:17;14.00;99.90
17948;DHT22;9099;47.958;11.366;2023-03-24T11:02:53;14.00;99.90
17948;DHT22;9099;47.958;11.366;2023-03-24T11:05:26;13.90;99.90
17948;DHT22;9099;47.958;11.366;2023-03-24T11:07:58;13.90;99.90
17948;DHT22;9099;47.958;11.366;2023-03-24T11:10:27;13.90;99.90
17948;DHT22;9099;47.958;11.366;2023-03-24T11:13:01;13.90;99.90
17948;DHT22;9099;47.958;11.366;2023-03-24T11:15:31;13.90;99.90
17948;DHT22;9099;47.958;11.366;2023-03-24T11:17:59;13.80;99.90
17948;DHT22;9099;47.958;11.366;2023-03-24T11:20:30;13.80;99.90
17948;DHT22;9099;47.958;11.366;2023-03-24T11:23:02;13.80;99.90
17948;DHT22;9099;47.958;11.366;2023-03-24T11:25:32;13.80;99.90
17948;DHT22;9099;47.958;11.366;2023-03-24T11:28:01;13.90;99.90
17948;DHT22;9099;47.958;11.366;2023-03-24T11:30:32;14.00;99.90
17948;DHT22;9099;47.958;11.366;2023-03-24T11:33:01;14.10;99.90
17948;DHT22;9099;47.958;11.366;2023-03-24T11:35:29;14.20;99.90
17948;DHT22;9099;47.958;11.366;2023-03-24T11:38:03;14.50;99.90
17948;DHT22;9099;47.958;11.366;2023-03-24T11:40:31;14.60;99.90
17948;DHT22;9099;47.958;11.366;2023-03-24T11:42:59;14.70;99.90
17948;DHT22;9099;47.958;11.366;2023-03-24T11:45:33;14.70;99.90
17948;DHT22;9099;47.958;11.366;2023-03-24T11:48:04;14.60;99.90
17948;DHT22;9099;47.958;11.366;2023-03-24T11:50:37;14.70;99.90
17948;DHT22;9099;47.958;11.366;2023-03-24T11:53:10;15.00;99.90
17948;DHT22;9099;47.958;11.366;2023-03-24T11:55:43;15.10;99.90
17948;DHT22;9099;47.958;11.366;2023-03-24T11:58:18;15.30;99.90
17948;DHT22;9099;47.958;11.366;2023-03-24T12:00:53;15.50;99.90
17948;DHT22;9099;47.958;11.366;2023-03-24T12:06:52;15.70;99.90
17948;DHT22;9099;47.958;11.366;2023-03-24T12:09:25;15.50;99.90
17948;DHT22;9099;47.958;11.366;2023-03-24T12:12:12;15.50;99.90
17948;DHT22;9099;47.958;11.366;2023-03-24T12:14:53;15.50;99.90
17948;DHT22;9099;47.958;11.366;2023-03-24T12:17:27;15.40;99.90
17948;DHT22;9099;47.958;11.366;2023-03-24T12:20:15;15.50;99.90
17948;DHT22;9099;47.958;11.366;2023-03-24T12:22:56;15.50;99.90
17948;DHT22;9099;47.958;11.366;2023-03-24T12:25:41;15.60;99.90
17948;DHT22;9099;47.958;11.366;2023-03-24T12:28:34;15.50;99.90
17948;DHT22;9099;47.958;11.366;2023-03-24T12:31:16;15.50;99.90
17948;DHT22;9099;47.958;11.366;2023-03-24T12:33:51;15.50;99.90
17948;DHT22;9099;47.958;11.366;2023-03-24T12:36:36;15.50;99.90
17948;DHT22;9099;47.958;11.366;2023-03-24T12:39:08;15.50;99.90
17948;DHT22;9099;47.958;11.366;2023-03-24T12:45:02;15.70;99.90
17948;DHT22;9099;47.958;11.366;2023-03-24T12:47:55;15.70;99.90
17948;DHT22;9099;47.958;11.366;2023-03-24T12:50:35;15.70;99.90
17948;DHT22;9099;47.958;11.366;2023-03-24T12:53:18;15.80;99.90
17948;DHT22;9099;47.958;11.366;2023-03-24T12:55:53;15.80;99.90
17948;DHT22;9099;47.958;11.366;2023-03-24T12:58:23;15.90;99.90
17948;DHT22;9099;47.958;11.366;2023-03-24T13:01:00;15.90;99.90
17948;DHT22;9099;47.958;11.366;2023-03-24T13:03:32;15.80;99.90
17948;DHT22;9099;47.958;11.366;2023-03-24T13:06:11;15.70;99.90
17948;DHT22;9099;47.958;11.366;2023-03-24T13:08:41;15.70;99.90
17948;DHT22;9099;47.958;11.366;2023-03-24T13:11:11;15.80;99.90
17948;DHT22;9099;47.958;11.366;2023-03-24T13:13:44;15.80;99.90
17948;DHT22;9099;47.958;11.366;2023-03-24T13:16:18;15.80;99.90
17948;DHT22;9099;47.958;11.366;2023-03-24T13:18:49;15.70;99.90
17948;DHT22;9099;47.958;11.366;2023-03-24T13:21:18;15.50;99.90
17948;DHT22;9099;47.958;11.366;2023-03-24T13:23:49;15.50;99.90
17948;DHT22;9099;47.958;11.366;2023-03-24T13:26:33;15.40;99.90
17948;DHT22;9099;47.958;11.366;2023-03-24T13:29:11;15.20;99.90
17948;DHT22;9099;47.958;11.366;2023-03-24T13:31:44;15.00;99.90
17948;DHT22;9099;47.958;11.366;2023-03-24T13:34:23;15.00;99.90
17948;DHT22;9099;47.958;11.366;2023-03-24T13:36:55;15.00;99.90
17948;DHT22;9099;47.958;11.366;2023-03-24T13:39:25;14.90;99.90
17948;DHT22;9099;47.958;11.366;2023-03-24T13:41:54;14.90;99.90
17948;DHT22;9099;47.958;11.366;2023-03-24T13:44:24;15.10;99.90
17948;DHT22;9099;47.958;11.366;2023-03-24T13:47:12;15.00;99.90
17948;DHT22;9099;47.958;11.366;2023-03-24T13:49:41;15.00;99.90
17948;DHT22;9099;47.958;11.366;2023-03-24T13:52:25;14.90;99.90
17948;DHT22;9099;47.958;11.366;2023-03-24T13:54:55;14.80;99.90
17948;DHT22;9099;47.958;11.366;2023-03-24T13:57:24;14.80;99.90
17948;DHT22;9099;47.958;11.366;2023-03-24T14:00:00;14.80;99.90
17948;DHT22;9099;47.958;11.366;2023-03-24T14:02:45;14.70;99.90
17948;DHT22;9099;47.958;11.366;2023-03-24T14:08:16;14.50;99.90
17948;DHT22;9099;47.958;11.366;2023-03-24T14:10:45;14.50;99.90
17948;DHT22;9099;47.958;11.366;2023-03-24T14:13:35;14.50;99.90
17948;DHT22;9099;47.958;11.366;2023-03-24T14:16:26;14.50;99.90
17948;DHT22;9099;47.958;11.366;2023-03-24T14:19:19;14.40;99.90
17948;DHT22;9099;47.958;11.366;2023-03-24T14:21:51;14.40;99.90
17948;DHT22;9099;47.958;11.366;2023-03-24T14:24:23;14.30;99.90
17948;DHT22;9099;47.958;11.366;2023-03-24T14:26:51;14.30;99.90
17948;DHT22;9099;47.958;11.366;2023-03-24T14:29:40;14.40;99.90
17948;DHT22;9099;47.958;11.366;2023-03-24T14:32:16;14.40;99.90
17948;DHT22;9099;47.958;11.366;2023-03-24T14:34:54;14.50;99.90
17948;DHT22;9099;47.958;11.366;2023-03-24T14:37:23;14.50;99.90
17948;DHT22;9099;47.958;11.366;2023-03-24T14:39:51;14.50;99.90
17948;DHT22;9099;47.958;11.366;2023-03-24T14:42:53;14.50;99.90
17948;DHT22;9099;47.958;11.366;2023-03-24T14:45:52;14.50;99.90
17948;DHT22;9099;47.958;11.366;2023-03-24T14:48:33;14.40;99.90
17948;DHT22;9099;47.958;11.366;2023-03-24T14:51:07;14.30;99.90
17948;DHT22;9099;47.958;11.366;2023-03-24T14:53:38;14.20;99.90
17948;DHT22;9099;47.958;11.366;2023-03-24T14:56:12;14.00;99.90
17948;DHT22;9099;47.958;11.366;2023-03-24T14:58:41;13.90;99.90
17948;DHT22;9099;47.958;11.366;2023-03-24T15:01:09;13.70;99.90
17948;DHT22;9099;47.958;11.366;2023-03-24T15:03:41;13.60;99.90
17948;DHT22;9099;47.958;11.366;2023-03-24T15:06:17;13.40;99.90
17948;DHT22;9099;47.958;11.366;2023-03-24T15:08:47;13.30;99.90
17948;DHT22;9099;47.958;11.366;2023-03-24T15:11:17;13.10;99.90
17948;DHT22;9099;47.958;11.366;2023-03-24T15:13:47;13.00;99.90
17948;DHT22;9099;47.958;11.366;2023-03-24T15:16:19;12.80;99.90
17948;DHT22;9099;47.958;11.366;2023-03-24T15:18:48;12.70;99.90
17948;DHT22;9099;47.958;11.366;2023-03-24T15:21:23;12.70;99.90
17948;DHT22;9099;47.958;11.366;2023-03-24T15:23:51;12.50;99.90
17948;DHT22;9099;47.958;11.366;2023-03-24T15:26:19;12.40;99.90
17948;DHT22;9099;47.958;11.366;2023-03-24T15:28:54;12.30;99.90
17948;DHT22;9099;47.958;11.366;2023-03-24T15:31:22;12.30;99.90
17948;DHT22;9099;47.958;11.366;2023-03-24T15:33:50;12.20;99.90
17948;DHT22;9099;47.958;11.366;2023-03-24T15:36:21;12.10;99.90
17948;DHT22;9099;47.958;11.366;2023-03-24T15:38:50;12.00;99.90
17948;DHT22;9099;47.958;11.366;2023-03-24T15:41:20;12.00;99.90
17948;DHT22;9099;47.958;11.366;2023-03-24T15:43:50;12.00;99.90
17948;DHT22;9099;47.958;11.366;2023-03-24T15:46:23;11.90;99.90
17948;DHT22;9099;47.958;11.366;2023-03-24T15:48:52;11.90;99.90
17948;DHT22;9099;47.958;11.366;2023-03-24T15:51:47;11.80;99.90
17948;DHT22;9099;47.958;11.366;2023-03-24T15:54:22;11.70;99.90
17948;DHT22;9099;47.958;11.366;2023-03-24T15:57:10;11.70;99.90
17948;DHT22;9099;47.958;11.366;2023-03-24T15:59:43;11.60;99.90
17948;DHT22;9099;47.958;11.366;2023-03-24T16:02:15;11.60;99.90
17948;DHT22;9099;47.958;11.366;2023-03-24T16:04:43;11.50;99.90
17948;DHT22;9099;47.958;11.366;2023-03-24T16:07:23;11.50;99.90
17948;DHT22;9099;47.958;11.366;2023-03-24T16:10:00;11.50;99.90
17948;DHT22;9099;47.958;11.366;2023-03-24T16:12:31;11.40;99.90